createdAt,value
2017-12-19T00:00:47.402Z,4.80
2017-12-19T00:03:14.901Z,4.70
2017-12-19T00:05:43.105Z,4.70
2017-12-19T00:08:10.532Z,4.70
2017-12-19T00:10:39.065Z,4.70
2017-12-19T00:13:06.492Z,4.70
2017-12-19T00:15:33.921Z,4.70
2017-12-19T00:18:02.120Z,4.70
2017-12-19T00:20:29.552Z,4.60
2017-12-19T00:22:57.753Z,4.60
2017-12-19T00:25:25.446Z,4.60
2017-12-19T00:27:52.904Z,4.60
2017-12-19T00:30:20.335Z,4.60
2017-12-19T00:32:47.780Z,4.60
2017-12-19T00:35:15.224Z,4.60
2017-12-19T00:37:42.650Z,4.60
2017-12-19T00:40:10.106Z,4.60
2017-12-19T00:42:37.535Z,4.60
2017-12-19T00:45:04.961Z,4.60
2017-12-19T00:47:33.172Z,4.60
2017-12-19T00:50:00.601Z,4.60
2017-12-19T00:52:28.040Z,4.60
2017-12-19T00:54:56.249Z,4.60
2017-12-19T00:57:23.680Z,4.60
2017-12-19T00:59:51.873Z,4.60
2017-12-19T01:02:19.601Z,4.60
2017-12-19T01:04:47.806Z,4.60
2017-12-19T01:07:15.231Z,4.60
2017-12-19T01:09:42.672Z,4.60
2017-12-19T01:12:10.104Z,4.60
2017-12-19T01:14:38.298Z,4.60
2017-12-19T01:17:05.754Z,4.60
2017-12-19T01:19:33.177Z,4.60
2017-12-19T01:22:00.610Z,4.60
2017-12-19T01:24:28.048Z,4.60
2017-12-19T01:26:55.490Z,4.60
2017-12-19T01:29:22.917Z,4.60
2017-12-19T01:31:51.126Z,4.60
2017-12-19T01:34:18.545Z,4.60
2017-12-19T01:36:46.743Z,4.60
2017-12-19T01:39:14.259Z,4.60
2017-12-19T01:41:41.672Z,4.60
2017-12-19T01:44:09.097Z,4.60
2017-12-19T01:46:37.569Z,4.60
2017-12-19T01:49:05.760Z,4.60
2017-12-19T01:51:33.186Z,4.60
2017-12-19T01:54:00.625Z,4.60
2017-12-19T01:56:28.089Z,4.50
2017-12-19T01:58:55.492Z,4.60
2017-12-19T02:01:22.932Z,4.60
2017-12-19T02:03:51.129Z,4.50
2017-12-19T02:06:18.552Z,4.50
2017-12-19T02:08:46.232Z,4.50
2017-12-19T02:11:14.437Z,4.50
2017-12-19T02:13:41.868Z,4.50
2017-12-19T02:16:10.080Z,4.50
2017-12-19T02:18:37.505Z,4.50
2017-12-19T02:21:04.928Z,4.50
2017-12-19T02:23:32.596Z,4.50
2017-12-19T02:26:00.788Z,4.50
2017-12-19T02:28:28.991Z,4.50
2017-12-19T02:30:56.435Z,4.50
2017-12-19T02:33:23.938Z,4.50
2017-12-19T02:35:52.070Z,4.50
2017-12-19T02:38:19.572Z,4.50
2017-12-19T02:40:47.001Z,4.50
2017-12-19T02:43:20.511Z,4.50
2017-12-19T02:45:52.429Z,4.50
2017-12-19T02:48:19.860Z,4.50
2017-12-19T02:50:47.303Z,4.40
2017-12-19T02:53:14.760Z,4.50
2017-12-19T02:55:42.189Z,4.50
2017-12-19T02:58:09.638Z,4.50
2017-12-19T03:00:37.061Z,4.50
2017-12-19T03:03:05.261Z,4.40
2017-12-19T03:05:33.045Z,4.40
2017-12-19T03:08:00.470Z,4.40
2017-12-19T03:10:27.906Z,4.40
2017-12-19T03:12:56.440Z,4.40
2017-12-19T03:15:23.888Z,4.40
2017-12-19T03:17:51.308Z,4.40
2017-12-19T03:20:19.540Z,4.40
2017-12-19T03:22:46.981Z,4.40
2017-12-19T03:25:14.409Z,4.40
2017-12-19T03:27:41.849Z,4.40
2017-12-19T03:30:10.042Z,4.40
2017-12-19T03:32:38.391Z,4.40
2017-12-19T03:35:06.108Z,4.40
2017-12-19T03:37:33.532Z,4.40
2017-12-19T03:40:01.725Z,4.40
2017-12-19T03:42:29.157Z,4.40
2017-12-19T03:44:57.352Z,4.40
2017-12-19T03:47:24.774Z,4.40
2017-12-19T03:49:52.213Z,4.30
2017-12-19T03:52:19.643Z,4.30
2017-12-19T03:54:47.084Z,4.30
2017-12-19T03:57:15.585Z,4.30
2017-12-19T03:59:43.000Z,4.30
2017-12-19T04:02:11.200Z,4.30
2017-12-19T04:04:38.632Z,4.30
2017-12-19T04:07:06.831Z,4.30
2017-12-19T04:09:34.293Z,4.30
2017-12-19T04:12:02.065Z,4.30
2017-12-19T04:14:29.496Z,4.30
2017-12-19T04:16:56.920Z,4.30
2017-12-19T04:19:24.357Z,4.30
2017-12-19T04:21:51.789Z,4.30
2017-12-19T04:24:19.224Z,4.30
2017-12-19T04:26:46.659Z,4.40
2017-12-19T04:29:14.918Z,4.40
2017-12-19T04:31:42.344Z,4.40
2017-12-19T04:34:10.118Z,4.40
2017-12-19T04:36:38.297Z,4.40
2017-12-19T04:39:05.736Z,4.40
2017-12-19T04:41:33.183Z,4.40
2017-12-19T04:44:00.616Z,4.40
2017-12-19T04:46:28.045Z,4.40
2017-12-19T04:48:55.477Z,4.40
2017-12-19T04:51:22.912Z,4.50
2017-12-19T04:53:50.355Z,4.50
2017-12-19T04:56:18.140Z,4.50
2017-12-19T04:58:45.573Z,4.50
2017-12-19T05:01:13.000Z,4.50
2017-12-19T05:03:41.224Z,4.50
2017-12-19T05:06:08.662Z,4.50
2017-12-19T05:08:36.852Z,4.50
2017-12-19T05:11:04.306Z,4.50
2017-12-19T05:13:31.745Z,4.50
2017-12-19T05:15:59.934Z,4.50
2017-12-19T05:18:27.387Z,4.50
2017-12-19T05:20:54.809Z,4.50
2017-12-19T05:23:23.034Z,4.50
2017-12-19T05:25:50.469Z,4.50
2017-12-19T05:28:17.893Z,4.50
2017-12-19T05:30:45.321Z,4.50
2017-12-19T05:33:13.084Z,4.50
2017-12-19T05:35:40.520Z,4.50
2017-12-19T05:38:07.944Z,4.50
2017-12-19T05:40:36.161Z,4.50
2017-12-19T05:43:03.605Z,4.50
2017-12-19T05:45:31.041Z,4.50
2017-12-19T05:47:58.739Z,4.50
2017-12-19T05:50:26.165Z,4.50
2017-12-19T05:52:53.590Z,4.50
2017-12-19T05:55:21.032Z,4.50
2017-12-19T05:57:48.472Z,4.50
2017-12-19T06:00:15.893Z,4.50
2017-12-19T06:02:43.329Z,4.50
2017-12-19T06:05:11.528Z,4.50
2017-12-19T06:07:38.948Z,4.50
2017-12-19T06:10:06.421Z,4.50
2017-12-19T06:12:34.669Z,4.50
2017-12-19T06:15:02.105Z,4.50
2017-12-19T06:17:29.553Z,4.50
2017-12-19T06:19:56.985Z,4.50
2017-12-19T06:22:24.405Z,4.50
2017-12-19T06:24:51.849Z,4.50
2017-12-19T06:27:19.289Z,4.50
2017-12-19T06:29:46.727Z,4.50
2017-12-19T06:32:14.221Z,4.50
2017-12-19T06:34:41.669Z,4.50
2017-12-19T06:37:09.098Z,4.50
2017-12-19T06:39:36.868Z,4.50
2017-12-19T06:42:04.303Z,4.50
2017-12-19T06:44:31.724Z,4.60
2017-12-19T06:46:59.176Z,4.60
2017-12-19T06:49:26.593Z,4.60
2017-12-19T06:51:54.049Z,4.60
2017-12-19T06:54:21.476Z,4.60
2017-12-19T06:56:48.912Z,4.60
2017-12-19T06:59:16.344Z,4.60
2017-12-19T07:01:43.789Z,4.60
2017-12-19T07:04:11.251Z,4.60
2017-12-19T07:06:38.669Z,4.60
2017-12-19T07:09:06.106Z,4.60
2017-12-19T07:11:34.297Z,4.60
2017-12-19T07:14:01.720Z,4.60
2017-12-19T07:16:29.167Z,4.60
2017-12-19T07:18:56.596Z,4.60
2017-12-19T07:21:24.021Z,4.60
2017-12-19T07:23:51.461Z,4.60
2017-12-19T07:26:19.662Z,4.70
2017-12-19T07:28:47.094Z,4.70
2017-12-19T07:31:14.522Z,4.70
2017-12-19T07:33:41.953Z,4.70
2017-12-19T07:36:09.385Z,4.70
2017-12-19T07:38:36.859Z,4.70
2017-12-19T07:41:04.260Z,4.70
2017-12-19T07:43:31.689Z,4.70
2017-12-19T07:45:59.151Z,4.70
2017-12-19T07:48:26.560Z,4.80
2017-12-19T07:50:53.993Z,4.80
2017-12-19T07:53:21.429Z,4.70
2017-12-19T07:55:48.878Z,4.80
2017-12-19T07:58:16.313Z,4.80
2017-12-19T08:00:43.768Z,4.80
2017-12-19T08:03:11.200Z,4.80
2017-12-19T08:05:38.636Z,4.90
2017-12-19T08:08:06.099Z,4.90
2017-12-19T08:10:34.329Z,4.90
2017-12-19T08:13:01.749Z,4.90
2017-12-19T08:15:29.193Z,4.90
2017-12-19T08:17:57.404Z,4.90
2017-12-19T08:20:24.829Z,4.90
2017-12-19T08:22:53.340Z,4.90
2017-12-19T08:25:20.769Z,4.90
2017-12-19T08:27:48.200Z,5.00
2017-12-19T08:30:15.889Z,4.90
2017-12-19T08:32:44.099Z,5.00
2017-12-19T08:35:11.534Z,5.00
2017-12-19T08:37:38.978Z,5.00
2017-12-19T08:40:07.180Z,5.00
2017-12-19T08:42:34.635Z,5.00
2017-12-19T08:45:02.068Z,5.10
2017-12-19T08:47:29.493Z,5.10
2017-12-19T08:49:56.925Z,5.10
2017-12-19T08:52:24.668Z,5.10
2017-12-19T08:54:52.073Z,5.20
2017-12-19T08:57:20.320Z,5.30
2017-12-19T08:59:47.988Z,5.30
2017-12-19T09:02:15.495Z,5.30
2017-12-19T09:04:42.883Z,5.40
2017-12-19T09:07:10.334Z,5.40
2017-12-19T09:09:37.752Z,5.40
2017-12-19T09:12:05.998Z,5.50
2017-12-19T09:14:33.394Z,5.50
2017-12-19T09:17:01.617Z,5.50
2017-12-19T09:19:29.161Z,5.50
2017-12-19T09:21:56.636Z,5.50
2017-12-19T09:24:24.080Z,5.50
2017-12-19T09:26:51.512Z,5.50
2017-12-19T09:29:18.949Z,5.50
2017-12-19T09:31:47.171Z,5.50
2017-12-19T09:34:14.600Z,5.50
2017-12-19T09:36:42.082Z,5.50
2017-12-19T09:39:09.552Z,5.50
2017-12-19T09:41:36.986Z,5.60
2017-12-19T09:44:04.426Z,5.60
2017-12-19T09:46:31.921Z,5.70
2017-12-19T09:48:59.345Z,5.70
2017-12-19T09:51:26.829Z,5.80
2017-12-19T09:53:54.277Z,5.80
2017-12-19T09:56:21.747Z,5.90
2017-12-19T09:58:49.191Z,5.90
2017-12-19T10:01:16.616Z,5.90
2017-12-19T10:03:44.814Z,5.90
2017-12-19T10:06:12.246Z,5.90
2017-12-19T10:08:40.468Z,6.00
2017-12-19T10:11:07.907Z,6.00
2017-12-19T10:13:35.801Z,6.00
2017-12-19T10:16:03.245Z,6.10
2017-12-19T10:18:30.669Z,6.10
2017-12-19T10:20:58.161Z,6.20
2017-12-19T10:23:25.588Z,6.20
2017-12-19T10:25:53.016Z,6.30
2017-12-19T10:28:21.257Z,6.30
2017-12-19T10:30:48.672Z,6.30
2017-12-19T10:33:16.153Z,6.30
2017-12-19T10:35:43.597Z,6.40
2017-12-19T10:38:11.067Z,6.40
2017-12-19T10:40:38.490Z,6.40
2017-12-19T10:43:05.985Z,6.50
2017-12-19T10:45:33.439Z,6.50
2017-12-19T10:48:00.893Z,6.60
2017-12-19T10:50:28.448Z,6.60
2017-12-19T10:52:55.913Z,6.70
2017-12-19T10:55:23.341Z,6.70
2017-12-19T10:57:50.830Z,6.80
2017-12-19T11:00:18.255Z,6.80
2017-12-19T11:02:45.682Z,6.80
2017-12-19T11:05:13.906Z,6.90
2017-12-19T11:07:41.382Z,6.90
2017-12-19T11:10:08.800Z,6.90
2017-12-19T11:12:36.239Z,6.90
2017-12-19T11:15:04.429Z,7.00
2017-12-19T11:17:31.850Z,6.90
2017-12-19T11:19:59.293Z,7.00
2017-12-19T11:22:26.717Z,6.90
2017-12-19T11:24:54.219Z,7.00
2017-12-19T11:27:21.750Z,6.90
2017-12-19T11:29:49.178Z,7.00
2017-12-19T11:32:16.675Z,6.90
2017-12-19T11:34:44.125Z,6.90
2017-12-19T11:37:11.572Z,6.90
2017-12-19T11:39:39.050Z,6.90
2017-12-19T11:42:06.805Z,6.90
2017-12-19T11:44:34.257Z,6.90
2017-12-19T11:47:01.721Z,6.90
2017-12-19T11:49:29.213Z,7.00
2017-12-19T11:51:56.873Z,7.00
2017-12-19T11:54:24.416Z,7.00
2017-12-19T11:56:52.632Z,7.00
2017-12-19T11:59:20.053Z,7.00
2017-12-19T12:01:48.288Z,7.10
2017-12-19T12:04:15.759Z,7.00
2017-12-19T12:06:43.215Z,7.00
2017-12-19T12:09:10.677Z,7.00
2017-12-19T12:11:38.125Z,7.10
2017-12-19T12:14:05.556Z,7.00
2017-12-19T12:16:32.989Z,7.10
2017-12-19T12:19:00.497Z,7.10
2017-12-19T12:21:27.929Z,7.00
2017-12-19T12:23:55.414Z,7.00
2017-12-19T12:26:22.861Z,7.00
2017-12-19T12:28:50.325Z,7.00
2017-12-19T12:31:17.748Z,7.00
2017-12-19T12:33:45.263Z,7.00
2017-12-19T12:36:12.673Z,7.00
2017-12-19T12:38:40.098Z,7.00
2017-12-19T12:41:08.303Z,7.00
2017-12-19T12:43:35.782Z,7.00
2017-12-19T12:46:03.217Z,7.10
2017-12-19T12:48:30.661Z,7.10
2017-12-19T12:50:58.865Z,7.10
2017-12-19T12:53:26.288Z,7.10
2017-12-19T12:55:54.557Z,7.20
2017-12-19T12:58:22.785Z,7.20
2017-12-19T13:00:50.217Z,7.20
2017-12-19T13:03:17.654Z,7.20
2017-12-19T13:05:45.861Z,7.30
2017-12-19T13:08:13.285Z,7.20
2017-12-19T13:10:41.506Z,7.30
2017-12-19T13:13:08.929Z,7.30
2017-12-19T13:15:36.359Z,7.30
2017-12-19T13:18:04.904Z,7.30
2017-12-19T13:20:32.328Z,7.30
2017-12-19T13:22:59.866Z,7.30
2017-12-19T13:25:28.073Z,7.30
2017-12-19T13:27:55.502Z,7.20
2017-12-19T13:30:23.733Z,7.30
2017-12-19T13:32:51.162Z,7.20
2017-12-19T13:35:18.585Z,7.30
2017-12-19T13:37:46.780Z,7.20
2017-12-19T13:40:14.242Z,7.20
2017-12-19T13:42:41.728Z,7.20
2017-12-19T13:45:09.181Z,7.20
2017-12-19T13:47:36.633Z,7.20
2017-12-19T13:50:04.089Z,7.20
2017-12-19T13:52:31.545Z,7.20
2017-12-19T13:54:59.001Z,7.20
2017-12-19T13:57:26.429Z,7.20
2017-12-19T13:59:53.859Z,7.20
2017-12-19T14:02:22.814Z,7.20
2017-12-19T14:04:50.241Z,7.20
2017-12-19T14:07:17.664Z,7.20
2017-12-19T14:09:45.187Z,7.20
2017-12-19T14:12:12.632Z,7.20
2017-12-19T14:14:40.061Z,7.20
2017-12-19T14:17:08.370Z,7.10
2017-12-19T14:19:35.801Z,7.10
2017-12-19T14:22:03.228Z,7.20
2017-12-19T14:24:32.177Z,7.10
2017-12-19T14:26:59.613Z,7.10
2017-12-19T14:29:27.037Z,7.10
2017-12-19T14:31:56.598Z,7.10
2017-12-19T14:34:24.021Z,7.10
2017-12-19T14:36:51.454Z,7.10
2017-12-19T14:39:19.661Z,7.10
2017-12-19T14:41:47.109Z,7.10
2017-12-19T14:44:14.592Z,7.10
2017-12-19T14:46:42.034Z,7.10
2017-12-19T14:49:09.460Z,7.10
2017-12-19T14:51:37.657Z,7.10
2017-12-19T14:54:05.098Z,7.00
2017-12-19T14:56:33.288Z,7.10
2017-12-19T14:59:00.770Z,7.00
2017-12-19T15:01:28.218Z,7.10
2017-12-19T15:03:55.684Z,7.10
2017-12-19T15:06:23.146Z,7.10
2017-12-19T15:08:50.906Z,7.10
2017-12-19T15:11:18.367Z,7.10
2017-12-19T15:13:45.841Z,7.10
2017-12-19T15:16:13.285Z,7.00
2017-12-19T15:18:40.724Z,7.00
2017-12-19T15:21:08.146Z,7.00
2017-12-19T15:23:35.590Z,7.00
2017-12-19T15:26:03.028Z,7.00
2017-12-19T15:28:30.455Z,7.00
2017-12-19T15:30:57.888Z,7.00
2017-12-19T15:33:25.314Z,7.00
2017-12-19T15:35:52.745Z,7.00
2017-12-19T15:38:20.949Z,7.00
2017-12-19T15:40:49.182Z,6.90
2017-12-19T15:43:16.616Z,6.90
2017-12-19T15:45:44.052Z,6.90
2017-12-19T15:48:12.276Z,6.90
2017-12-19T15:50:39.709Z,6.90
2017-12-19T15:53:07.182Z,6.90
2017-12-19T15:55:34.693Z,6.90
2017-12-19T15:58:02.893Z,6.90
2017-12-19T16:00:30.337Z,6.90
2017-12-19T16:02:58.549Z,6.90
2017-12-19T16:05:26.005Z,6.90
2017-12-19T16:07:53.452Z,6.90
2017-12-19T16:10:20.928Z,6.90
2017-12-19T16:12:48.370Z,6.90
2017-12-19T16:15:15.809Z,6.90
2017-12-19T16:17:43.237Z,6.90
2017-12-19T16:20:11.438Z,6.80
2017-12-19T16:22:38.877Z,6.80
2017-12-19T16:25:07.073Z,6.90
2017-12-19T16:27:34.501Z,6.80
2017-12-19T16:30:02.743Z,6.80
2017-12-19T16:32:30.193Z,6.80
2017-12-19T16:34:57.644Z,6.80
2017-12-19T16:37:25.087Z,6.80
2017-12-19T16:39:52.524Z,6.80
2017-12-19T16:42:19.948Z,6.80
2017-12-19T16:44:48.208Z,6.80
2017-12-19T16:47:15.613Z,6.80
2017-12-19T16:49:43.058Z,6.80
2017-12-19T16:52:10.557Z,6.70
2017-12-19T16:54:37.987Z,6.70
2017-12-19T16:57:05.421Z,6.70
2017-12-19T16:59:33.641Z,6.60
2017-12-19T17:02:01.107Z,6.60
2017-12-19T17:04:28.661Z,6.60
2017-12-19T17:06:56.106Z,6.60
2017-12-19T17:09:23.585Z,6.60
2017-12-19T17:11:51.040Z,6.60
2017-12-19T17:14:18.483Z,6.60
2017-12-19T17:16:45.916Z,6.60
2017-12-19T17:19:13.351Z,6.60
2017-12-19T17:21:41.566Z,6.50
2017-12-19T17:24:09.076Z,6.50
2017-12-19T17:26:36.505Z,6.50
2017-12-19T17:29:03.953Z,6.50
2017-12-19T17:31:31.420Z,6.50
2017-12-19T17:33:58.856Z,6.50
2017-12-19T17:36:26.329Z,6.50
2017-12-19T17:38:53.780Z,6.50
2017-12-19T17:41:21.209Z,6.50
2017-12-19T17:43:48.693Z,6.50
2017-12-19T17:46:16.132Z,6.50
2017-12-19T17:48:43.570Z,6.50
2017-12-19T17:51:11.781Z,6.40
2017-12-19T17:53:39.262Z,6.40
2017-12-19T17:56:06.797Z,6.50
2017-12-19T17:58:34.242Z,6.50
2017-12-19T18:01:02.529Z,6.40
2017-12-19T18:03:30.038Z,6.40
2017-12-19T18:05:58.981Z,6.40
2017-12-19T18:08:26.409Z,6.40
2017-12-19T18:10:53.898Z,6.40
2017-12-19T18:13:21.356Z,6.40
2017-12-19T18:15:48.785Z,6.40
2017-12-19T18:18:16.801Z,6.40
2017-12-19T18:20:44.541Z,6.40
2017-12-19T18:23:12.001Z,6.40
2017-12-19T18:25:39.437Z,6.40
2017-12-19T18:28:06.883Z,6.30
2017-12-19T18:30:34.309Z,6.40
2017-12-19T18:33:01.833Z,6.40
2017-12-19T18:35:29.281Z,6.40
2017-12-19T18:37:56.756Z,6.30
2017-12-19T18:40:24.185Z,6.30
2017-12-19T18:42:51.645Z,6.30
2017-12-19T18:45:19.072Z,6.30
2017-12-19T18:47:47.278Z,6.30
2017-12-19T18:50:14.717Z,6.30
2017-12-19T18:52:42.201Z,6.30
2017-12-19T18:55:09.660Z,6.30
2017-12-19T18:57:37.432Z,6.30
2017-12-19T19:00:04.886Z,6.30
2017-12-19T19:02:32.314Z,6.30
2017-12-19T19:04:59.758Z,6.30
2017-12-19T19:07:27.190Z,6.30
2017-12-19T19:09:56.141Z,6.30
2017-12-19T19:12:23.607Z,6.30
2017-12-19T19:14:51.037Z,6.30
2017-12-19T19:17:18.469Z,6.30
2017-12-19T19:19:46.688Z,6.30
2017-12-19T19:22:14.113Z,6.30
2017-12-19T19:24:41.541Z,6.30
2017-12-19T19:27:09.792Z,6.30
2017-12-19T19:29:37.251Z,6.30
2017-12-19T19:32:04.706Z,6.30
2017-12-19T19:34:32.259Z,6.30
2017-12-19T19:36:59.802Z,6.30
2017-12-19T19:39:27.274Z,6.30
2017-12-19T19:41:54.733Z,6.30
2017-12-19T19:44:22.173Z,6.30
2017-12-19T19:46:49.641Z,6.30
2017-12-19T19:49:20.563Z,6.30
2017-12-19T19:51:48.131Z,6.20
2017-12-19T19:54:15.636Z,6.20
2017-12-19T19:56:43.073Z,6.30
2017-12-19T19:59:10.617Z,6.20
2017-12-19T20:01:38.065Z,6.30
2017-12-19T20:04:05.525Z,6.30
2017-12-19T20:06:32.989Z,6.30
2017-12-19T20:09:00.441Z,6.30
2017-12-19T20:11:27.891Z,6.30
2017-12-19T20:13:55.356Z,6.30
2017-12-19T20:16:22.817Z,6.20
2017-12-19T20:18:50.261Z,6.30
2017-12-19T20:21:17.727Z,6.30
2017-12-19T20:23:46.241Z,6.20
2017-12-19T20:26:13.950Z,6.30
2017-12-19T20:28:41.425Z,6.20
2017-12-19T20:31:08.872Z,6.20
2017-12-19T20:33:36.366Z,6.20
2017-12-19T20:36:03.772Z,6.20
2017-12-19T20:38:31.196Z,6.30
2017-12-19T20:40:58.715Z,6.20
2017-12-19T20:43:26.155Z,6.20
2017-12-19T20:45:53.573Z,6.30
2017-12-19T20:48:21.801Z,6.20
2017-12-19T20:50:49.247Z,6.20
2017-12-19T20:53:16.712Z,6.20
2017-12-19T20:55:44.401Z,6.20
2017-12-19T20:58:12.304Z,6.30
2017-12-19T21:00:41.235Z,6.20
2017-12-19T21:03:08.684Z,6.20
2017-12-19T21:05:36.113Z,6.20
2017-12-19T21:08:04.324Z,6.30
2017-12-19T21:10:32.124Z,6.20
2017-12-19T21:12:59.525Z,6.30
2017-12-19T21:15:27.005Z,6.30
2017-12-19T21:17:54.457Z,6.30
2017-12-19T21:20:21.917Z,6.30
2017-12-19T21:22:49.369Z,6.30
2017-12-19T21:25:16.805Z,6.20
2017-12-19T21:27:44.236Z,6.30
2017-12-19T21:30:11.680Z,6.30
2017-12-19T21:32:39.116Z,6.30
2017-12-19T21:35:06.570Z,6.20
2017-12-19T21:37:35.793Z,6.20
2017-12-19T21:40:03.333Z,6.20
2017-12-19T21:42:30.788Z,6.20
2017-12-19T21:44:58.222Z,6.30
2017-12-19T21:47:25.713Z,6.30
2017-12-19T21:49:53.168Z,6.20
2017-12-19T21:52:20.641Z,6.20
2017-12-19T21:54:48.684Z,6.30
2017-12-19T21:57:16.126Z,6.30
2017-12-19T21:59:43.560Z,6.20
2017-12-19T22:02:11.776Z,6.20
2017-12-19T22:04:39.216Z,6.20
2017-12-19T22:07:06.641Z,6.20
2017-12-19T22:09:34.841Z,6.20
2017-12-19T22:12:02.277Z,6.20
2017-12-19T22:14:30.469Z,6.20
2017-12-19T22:16:58.165Z,6.20
2017-12-19T22:19:25.637Z,6.20
2017-12-19T22:21:53.076Z,6.20
2017-12-19T22:24:20.847Z,6.20
2017-12-19T22:26:48.281Z,6.20
2017-12-19T22:29:15.761Z,6.20
2017-12-19T22:31:43.213Z,6.20
2017-12-19T22:34:10.672Z,6.20
2017-12-19T22:36:38.101Z,6.10
2017-12-19T22:39:05.547Z,6.10
2017-12-19T22:41:33.757Z,6.20
2017-12-19T22:44:01.209Z,6.10
2017-12-19T22:46:28.636Z,6.20
2017-12-19T22:48:56.838Z,6.20
2017-12-19T22:51:24.272Z,6.10
2017-12-19T22:53:51.713Z,6.10
2017-12-19T22:56:20.024Z,6.20
2017-12-19T22:58:49.009Z,6.10
2017-12-19T23:01:16.488Z,6.20
2017-12-19T23:03:43.977Z,6.20
2017-12-19T23:06:11.405Z,6.20
2017-12-19T23:08:38.906Z,6.10
2017-12-19T23:11:06.287Z,6.10
2017-12-19T23:13:34.479Z,6.10
2017-12-19T23:16:01.944Z,6.10
2017-12-19T23:18:29.350Z,6.20
2017-12-19T23:20:57.550Z,6.10
2017-12-19T23:23:25.037Z,6.10
2017-12-19T23:25:52.492Z,6.10
2017-12-19T23:28:19.924Z,6.10
2017-12-19T23:30:47.389Z,6.10
2017-12-19T23:33:14.867Z,6.10
2017-12-19T23:35:42.318Z,6.10
2017-12-19T23:38:09.745Z,6.10
2017-12-19T23:40:37.242Z,6.10
2017-12-19T23:43:04.665Z,6.10
2017-12-19T23:45:32.105Z,6.10
2017-12-19T23:48:00.333Z,6.10
2017-12-19T23:50:27.757Z,6.10
2017-12-19T23:52:55.196Z,6.10
2017-12-19T23:55:23.388Z,6.10
2017-12-19T23:57:50.820Z,6.10
